createdAt,value
2022-07-25T00:03:24.573Z,100192.00
2022-07-25T00:08:29.121Z,100196.81
2022-07-25T00:13:29.756Z,100189.06
2022-07-25T00:18:31.684Z,100181.50
2022-07-25T00:23:32.323Z,100181.19
2022-07-25T00:28:33.216Z,100171.53
2022-07-25T00:33:35.227Z,100170.25
2022-07-25T00:38:35.941Z,100170.94
2022-07-25T00:43:36.631Z,100169.06
2022-07-25T00:48:38.641Z,100170.28
2022-07-25T00:53:40.243Z,100168.97
2022-07-25T00:58:41.001Z,100161.38
2022-07-25T01:03:43.124Z,100158.31
2022-07-25T01:08:44.111Z,100154.66
2022-07-25T01:13:45.169Z,100151.72
2022-07-25T01:18:47.287Z,100142.00
2022-07-25T01:23:49.220Z,100141.59
2022-07-25T01:28:49.815Z,100135.19
2022-07-25T01:33:50.467Z,100132.88
2022-07-25T01:38:54.280Z,100120.00
2022-07-25T01:43:54.979Z,100111.44
2022-07-25T01:48:55.772Z,100112.34
2022-07-25T01:53:57.750Z,100108.91
2022-07-25T01:58:58.366Z,100108.06
2022-07-25T02:03:59.674Z,100107.59
2022-07-25T02:09:01.673Z,100104.31
2022-07-25T02:14:02.509Z,100094.91
2022-07-25T02:19:03.436Z,100107.53
2022-07-25T02:24:06.126Z,100103.38
2022-07-25T02:29:07.018Z,100102.88
2022-07-25T02:34:08.029Z,100087.28
2022-07-25T02:39:10.187Z,100090.03
2022-07-25T02:44:11.041Z,100095.44
2022-07-25T02:49:11.689Z,100080.97
2022-07-25T02:54:14.072Z,100083.78
2022-07-25T02:59:14.938Z,100079.44
2022-07-25T03:04:16.282Z,100071.56
2022-07-25T03:09:19.247Z,100080.25
2022-07-25T03:14:19.832Z,100068.13
2022-07-25T03:19:20.430Z,100068.34
2022-07-25T03:24:22.374Z,100069.25
2022-07-25T03:29:23.026Z,100064.94
2022-07-25T03:34:23.650Z,100066.50
2022-07-25T03:39:25.607Z,100058.66
2022-07-25T03:44:26.800Z,100051.47
2022-07-25T03:49:27.399Z,100049.50
2022-07-25T03:54:29.305Z,100046.28
2022-07-25T03:59:29.887Z,100048.69
2022-07-25T04:04:30.519Z,100048.31
2022-07-25T04:09:33.544Z,100041.66
2022-07-25T04:14:34.472Z,100027.31
2022-07-25T04:19:35.464Z,100031.00
2022-07-25T04:24:38.543Z,100019.38
2022-07-25T04:29:39.149Z,100013.66
2022-07-25T04:34:39.750Z,100008.78
2022-07-25T04:39:41.657Z,99993.97
2022-07-25T04:44:42.256Z,99991.13
2022-07-25T04:49:42.859Z,99992.16
2022-07-25T04:54:44.795Z,99982.44
2022-07-25T04:59:45.663Z,99975.63
2022-07-25T05:04:46.250Z,99964.94
2022-07-25T05:09:54.014Z,99970.66
2022-07-25T05:14:56.124Z,99959.19
2022-07-25T05:19:58.082Z,99971.47
2022-07-25T05:25:02.315Z,99948.22
2022-07-25T05:30:02.963Z,99945.75
2022-07-25T05:35:03.979Z,99950.28
2022-07-25T05:40:07.518Z,99940.94
2022-07-25T05:45:08.947Z,99939.59
2022-07-25T05:50:10.290Z,99925.88
2022-07-25T05:55:13.579Z,99929.72
2022-07-25T06:00:14.906Z,99929.75
2022-07-25T06:05:15.554Z,99927.13
2022-07-25T06:10:17.793Z,99923.06
2022-07-25T06:15:22.284Z,99905.09
2022-07-25T06:20:27.581Z,99908.63
2022-07-25T06:25:29.598Z,99907.94
2022-07-25T06:30:30.321Z,99904.13
2022-07-25T06:35:30.948Z,99910.56
2022-07-25T06:40:33.089Z,99904.34
2022-07-25T06:45:33.698Z,99897.50
2022-07-25T06:50:34.393Z,99890.31
2022-07-25T06:55:36.796Z,99886.25
2022-07-25T07:00:37.557Z,99870.41
2022-07-25T07:05:38.193Z,99855.59
2022-07-25T07:10:40.945Z,99855.00
2022-07-25T07:15:46.443Z,99855.22
2022-07-25T07:20:47.505Z,99854.91
2022-07-25T07:25:49.507Z,99858.19
2022-07-25T07:31:15.285Z,99848.34
2022-07-25T07:36:11.030Z,99841.44
2022-07-25T07:41:13.211Z,99833.16
2022-07-25T07:46:14.014Z,99831.28
2022-07-25T07:51:14.673Z,99839.41
2022-07-25T07:56:18.960Z,99837.81
2022-07-25T08:01:19.715Z,99826.44
2022-07-25T08:06:20.384Z,99826.16
2022-07-25T08:11:22.963Z,99819.78
2022-07-25T08:16:23.641Z,99818.03
2022-07-25T08:21:24.284Z,99813.25
2022-07-25T08:26:27.891Z,99806.28
2022-07-25T08:31:29.039Z,99811.50
2022-07-25T08:36:34.578Z,99808.75
2022-07-25T08:41:40.020Z,99803.81
2022-07-25T08:46:42.014Z,99802.34
2022-07-25T08:51:42.870Z,99794.69
2022-07-25T08:56:44.856Z,99789.66
2022-07-25T09:01:45.565Z,99790.03
2022-07-25T09:06:50.735Z,99777.69
2022-07-25T09:11:52.644Z,99769.50
2022-07-25T09:16:53.668Z,99767.00
2022-07-25T09:22:03.141Z,99766.38
2022-07-25T09:27:12.613Z,99757.53
2022-07-25T09:32:20.138Z,99755.59
2022-07-25T09:37:27.246Z,99759.56
2022-07-25T09:42:32.500Z,99752.00
2022-07-25T09:47:34.797Z,99752.72
2022-07-25T09:52:36.701Z,99754.94
2022-07-25T09:57:39.141Z,99752.44
2022-07-25T10:02:50.413Z,99742.19
2022-07-25T10:07:53.981Z,99734.88
2022-07-25T10:13:10.488Z,99728.59
2022-07-25T10:18:11.823Z,99717.69
2022-07-25T10:23:23.402Z,99711.69
2022-07-25T10:28:37.414Z,99698.06
2022-07-25T10:33:42.438Z,99696.75
2022-07-25T10:38:45.402Z,99692.72
2022-07-25T10:43:48.835Z,99690.09
2022-07-25T10:48:59.587Z,99676.28
2022-07-25T10:54:00.786Z,99664.50
2022-07-25T10:59:03.065Z,99664.50
2022-07-25T11:04:06.479Z,99655.84
2022-07-25T11:09:18.592Z,99644.31
2022-07-25T11:14:23.813Z,99646.03
2022-07-25T11:19:25.622Z,99642.50
2022-07-25T11:24:35.995Z,99637.63
2022-07-25T11:29:38.699Z,99639.72
2022-07-25T11:34:42.431Z,99627.41
2022-07-25T11:39:45.118Z,99615.50
2022-07-25T11:44:50.271Z,99613.78
2022-07-25T11:49:52.521Z,99600.53
2022-07-25T11:54:58.874Z,99590.41
2022-07-25T12:00:02.717Z,99580.50
2022-07-25T12:05:10.977Z,99582.78
2022-07-25T12:10:15.616Z,99576.75
2022-07-25T12:15:19.906Z,99568.34
2022-07-25T12:20:22.036Z,99571.00
2022-07-25T12:25:27.542Z,99557.91
2022-07-25T12:30:34.173Z,99548.22
2022-07-25T12:35:37.304Z,99547.63
2022-07-25T12:40:38.121Z,99534.34
2022-07-25T12:45:40.988Z,99533.41
2022-07-25T12:50:41.878Z,99523.88
2022-07-25T12:55:42.895Z,99526.72
2022-07-25T13:00:45.827Z,99523.47
2022-07-25T13:05:46.497Z,99520.00
2022-07-25T13:10:47.114Z,99516.28
2022-07-25T13:15:49.146Z,99493.47
2022-07-25T13:20:49.832Z,99492.94
2022-07-25T13:25:50.496Z,99482.47
2022-07-25T13:30:52.516Z,99472.03
2022-07-25T13:35:53.109Z,99451.97
2022-07-25T13:40:58.730Z,99452.28
2022-07-25T13:46:01.999Z,99443.56
2022-07-25T13:51:02.709Z,99430.81
2022-07-25T13:56:03.408Z,99430.34
2022-07-25T14:01:05.505Z,99415.28
2022-07-25T14:06:07.370Z,99415.44
2022-07-25T14:11:08.484Z,99399.41
2022-07-25T14:16:10.711Z,99407.31
2022-07-25T14:21:11.403Z,99395.09
2022-07-25T14:26:12.160Z,99396.97
2022-07-25T14:31:14.126Z,99383.59
2022-07-25T14:36:14.815Z,99381.56
2022-07-25T14:41:16.331Z,99376.63
2022-07-25T14:46:18.486Z,99370.50
2022-07-25T14:51:19.922Z,99362.66
2022-07-25T14:56:20.774Z,99352.41
2022-07-25T15:01:25.249Z,99335.56
2022-07-25T15:06:29.227Z,99329.19
2022-07-25T15:11:30.008Z,99324.59
2022-07-25T15:16:32.109Z,99321.59
2022-07-25T15:21:33.003Z,99316.25
2022-07-25T15:26:33.919Z,99315.84
2022-07-25T15:31:36.015Z,99301.44
2022-07-25T15:36:37.098Z,99297.53
2022-07-25T15:41:37.734Z,99293.16
2022-07-25T15:46:41.075Z,99285.63
2022-07-25T15:51:41.727Z,99278.88
2022-07-25T15:56:42.400Z,99273.75
2022-07-25T16:01:44.421Z,99270.47
2022-07-25T16:06:45.190Z,99260.44
2022-07-25T16:11:46.514Z,99255.19
2022-07-25T16:16:48.614Z,99250.50
2022-07-25T16:21:49.287Z,99241.63
2022-07-25T16:26:50.035Z,99230.53
2022-07-25T16:31:52.065Z,99223.59
2022-07-25T16:36:53.873Z,99216.38
2022-07-25T16:41:55.225Z,99219.00
2022-07-25T16:46:57.428Z,99209.69
2022-07-25T16:51:58.129Z,99192.41
2022-07-25T16:56:59.877Z,99188.47
2022-07-25T17:02:02.044Z,99180.38
2022-07-25T17:07:02.818Z,99171.53
2022-07-25T17:12:03.472Z,99178.75
2022-07-25T17:17:06.060Z,99167.75
2022-07-25T17:22:06.971Z,99165.16
2022-07-25T17:27:08.249Z,99171.25
2022-07-25T17:32:10.348Z,99170.56
2022-07-25T17:37:11.030Z,99162.34
2022-07-25T17:42:11.752Z,99162.66
2022-07-25T17:47:13.821Z,99172.25
2022-07-25T17:52:15.637Z,99175.50
2022-07-25T17:57:16.703Z,99183.25
2022-07-25T18:02:19.073Z,99173.63
2022-07-25T18:07:20.655Z,99171.16
2022-07-25T18:12:23.762Z,99208.78
2022-07-25T18:17:28.148Z,99314.38
2022-07-25T18:22:29.003Z,99309.13
2022-07-25T18:27:29.833Z,99295.88
2022-07-25T18:32:31.903Z,99329.31
2022-07-25T18:37:32.931Z,99320.66
2022-07-25T18:42:33.624Z,99321.38
2022-07-25T18:47:35.982Z,99304.06
2022-07-25T18:52:37.434Z,99317.22
2022-07-25T18:57:38.280Z,99326.28
2022-07-25T19:02:40.236Z,99333.41
2022-07-25T19:07:41.413Z,99348.25
2022-07-25T19:12:42.242Z,99351.75
2022-07-25T19:17:45.594Z,99365.38
2022-07-25T19:22:46.424Z,99370.00
2022-07-25T19:27:49.013Z,99359.13
2022-07-25T19:32:51.245Z,99357.63
2022-07-25T19:37:52.045Z,99347.97
2022-07-25T19:42:52.897Z,99341.63
2022-07-25T19:47:56.144Z,99350.59
2022-07-25T19:52:57.425Z,99355.47
2022-07-25T19:57:58.528Z,99381.25
2022-07-25T20:03:00.602Z,99393.69
2022-07-25T20:08:01.471Z,99383.72
2022-07-25T20:13:02.231Z,99384.59
2022-07-25T20:18:04.412Z,99410.34
2022-07-25T20:23:05.183Z,99378.50
2022-07-25T20:28:06.049Z,99352.03
2022-07-25T20:33:09.609Z,99349.16
2022-07-25T20:38:10.501Z,99357.00
2022-07-25T20:43:12.000Z,99373.53
2022-07-25T20:48:13.980Z,99368.75
2022-07-25T20:53:14.835Z,99364.34
2022-07-25T20:58:15.542Z,99363.25
2022-07-25T21:03:17.488Z,99366.28
2022-07-25T21:08:18.121Z,99371.84
2022-07-25T21:13:18.742Z,99364.38
2022-07-25T21:18:20.659Z,99354.97
2022-07-25T21:23:21.417Z,99367.69
2022-07-25T21:28:22.147Z,99376.16
2022-07-25T21:33:24.060Z,99388.31
2022-07-25T21:38:26.079Z,99381.47
2022-07-25T21:43:27.286Z,99393.75
2022-07-25T21:48:46.804Z,99384.72
2022-07-25T21:53:47.734Z,99371.84
2022-07-25T21:58:48.902Z,99391.91
2022-07-25T22:03:52.660Z,99393.13
2022-07-25T22:08:53.364Z,99384.97
2022-07-25T22:13:54.026Z,99384.97
2022-07-25T22:18:57.183Z,99393.91
2022-07-25T22:23:58.004Z,99380.47
2022-07-25T22:28:58.773Z,99406.69
2022-07-25T22:34:00.731Z,99450.25
2022-07-25T22:39:01.405Z,99461.91
2022-07-25T22:44:02.008Z,99448.31
2022-07-25T22:49:04.831Z,99457.38
2022-07-25T22:54:05.984Z,99472.88
2022-07-25T22:59:06.825Z,99488.88
2022-07-25T23:04:09.096Z,99493.13
2022-07-25T23:09:10.718Z,99490.63
2022-07-25T23:14:11.850Z,99501.81
2022-07-25T23:19:13.808Z,99506.28
2022-07-25T23:24:14.473Z,99533.06
2022-07-25T23:29:15.066Z,99555.22
2022-07-25T23:34:17.019Z,99570.75
2022-07-25T23:39:17.684Z,99603.66
2022-07-25T23:44:18.385Z,99630.69
2022-07-25T23:49:20.389Z,99623.59
2022-07-25T23:54:21.118Z,99625.59
2022-07-25T23:59:21.760Z,99627.69
